createdAt,value
2023-02-14T00:00:58.191Z,4.6
2023-02-14T00:02:09.964Z,4.7
2023-02-14T00:03:18.709Z,4.7
2023-02-14T00:04:25.984Z,4.7
2023-02-14T00:05:32.690Z,4.8
2023-02-14T00:06:39.669Z,4.8
2023-02-14T00:07:49.466Z,4.8
2023-02-14T00:08:57.270Z,4.7
2023-02-14T00:10:06.766Z,4.7
2023-02-14T00:11:13.853Z,4.7
2023-02-14T00:12:21.504Z,4.8
2023-02-14T00:13:28.493Z,4.8
2023-02-14T00:14:35.565Z,4.6
2023-02-14T00:15:47.666Z,4.5
2023-02-14T00:16:54.476Z,4.6
2023-02-14T00:18:03.211Z,4.5
2023-02-14T00:19:10.944Z,4.6
2023-02-14T00:20:17.765Z,4.7
2023-02-14T00:21:24.630Z,4.7
2023-02-14T00:22:31.509Z,4.7
2023-02-14T00:23:38.365Z,4.6
2023-02-14T00:24:47.257Z,4.6
2023-02-14T00:25:56.326Z,4.7
2023-02-14T00:27:05.014Z,4.5
2023-02-14T00:28:13.794Z,4.7
2023-02-14T00:29:22.757Z,4.7
2023-02-14T00:30:29.881Z,4.8
2023-02-14T00:31:37.093Z,4.8
2023-02-14T00:32:43.717Z,4.8
2023-02-14T00:33:50.680Z,4.7
2023-02-14T00:34:57.762Z,4.6
2023-02-14T00:36:05.667Z,4.6
2023-02-14T00:37:12.589Z,4.5
2023-02-14T00:38:19.446Z,4.7
2023-02-14T00:39:28.276Z,4.8
2023-02-14T00:40:35.179Z,4.9
2023-02-14T00:41:42.127Z,4.7
2023-02-14T00:42:50.224Z,4.8
2023-02-14T00:43:57.202Z,4.6
2023-02-14T00:45:04.105Z,4.7
2023-02-14T00:46:12.071Z,4.7
2023-02-14T00:47:19.838Z,4.6
2023-02-14T00:48:27.291Z,4.8
2023-02-14T00:49:34.216Z,4.7
2023-02-14T00:50:44.634Z,4.7
2023-02-14T00:51:52.943Z,4.8
2023-02-14T00:53:00.676Z,4.8
2023-02-14T00:54:07.562Z,4.7
2023-02-14T00:55:15.341Z,4.8
2023-02-14T00:56:22.293Z,4.5
2023-02-14T00:57:29.585Z,4.7
2023-02-14T00:58:37.994Z,4.8
2023-02-14T00:59:45.785Z,4.9
2023-02-14T01:00:53.586Z,4.7
2023-02-14T01:02:02.691Z,4.7
2023-02-14T01:03:09.702Z,4.8
2023-02-14T01:04:18.233Z,4.7
2023-02-14T01:05:26.113Z,4.8
2023-02-14T01:06:32.965Z,4.7
2023-02-14T01:07:43.345Z,4.9
2023-02-14T01:08:50.255Z,4.9
2023-02-14T01:09:57.046Z,4.9
2023-02-14T01:11:04.973Z,5
2023-02-14T01:12:11.733Z,4.9
2023-02-14T01:13:20.717Z,5
2023-02-14T01:14:27.673Z,4.9
2023-02-14T01:15:34.557Z,4.7
2023-02-14T01:16:41.370Z,4.7
2023-02-14T01:17:48.610Z,4.7
2023-02-14T01:18:55.408Z,4.7
2023-02-14T01:20:02.302Z,4.8
2023-02-14T01:21:10.933Z,4.9
2023-02-14T01:22:18.869Z,4.8
2023-02-14T01:23:26.793Z,4.7
2023-02-14T01:24:33.963Z,4.8
2023-02-14T01:25:41.013Z,4.8
2023-02-14T01:26:47.907Z,4.6
2023-02-14T01:27:55.535Z,4.7
2023-02-14T01:29:02.369Z,4.7
2023-02-14T01:30:09.370Z,4.7
2023-02-14T01:31:16.669Z,4.6
2023-02-14T01:32:25.267Z,4.7
2023-02-14T01:33:35.072Z,4.8
2023-02-14T01:34:41.863Z,4.9
2023-02-14T01:35:48.709Z,4.9
2023-02-14T01:36:56.515Z,4.9
2023-02-14T01:38:05.363Z,5
2023-02-14T01:39:12.404Z,5
2023-02-14T01:40:19.422Z,5
2023-02-14T01:41:27.079Z,5
2023-02-14T01:42:34.671Z,5
2023-02-14T01:43:41.576Z,5
2023-02-14T01:44:55.242Z,4.9
2023-02-14T01:46:05.109Z,4.9
2023-02-14T01:47:12.857Z,5
2023-02-14T01:48:19.788Z,5
2023-02-14T01:49:27.529Z,4.9
2023-02-14T01:50:36.398Z,4.9
2023-02-14T01:51:44.276Z,4.9
2023-02-14T01:52:51.080Z,4.9
2023-02-14T01:54:01.588Z,4.9
2023-02-14T01:55:08.435Z,4.9
2023-02-14T01:56:20.538Z,4.9
2023-02-14T01:57:28.288Z,5
2023-02-14T01:58:38.009Z,5
2023-02-14T01:59:44.809Z,5
2023-02-14T02:00:53.821Z,4.9
2023-02-14T02:02:00.668Z,4.9
2023-02-14T02:03:08.346Z,4.8
2023-02-14T02:04:16.558Z,4.9
2023-02-14T02:05:26.311Z,4.9
2023-02-14T02:06:33.371Z,4.8
2023-02-14T02:07:45.358Z,4.8
2023-02-14T02:08:55.199Z,4.8
2023-02-14T02:10:12.302Z,4.9
2023-02-14T02:11:19.095Z,4.8
2023-02-14T02:12:25.949Z,4.8
2023-02-14T02:13:32.813Z,4.8
2023-02-14T02:14:42.646Z,4.8
2023-02-14T02:15:49.520Z,4.8
2023-02-14T02:17:06.610Z,4.8
2023-02-14T02:18:18.650Z,4.8
2023-02-14T02:19:30.695Z,4.8
2023-02-14T02:20:47.866Z,4.7
2023-02-14T02:21:57.389Z,4.8
2023-02-14T02:23:09.394Z,4.7
2023-02-14T02:24:22.579Z,4.7
2023-02-14T02:25:34.739Z,4.8
2023-02-14T02:26:52.702Z,4.8
2023-02-14T02:28:05.880Z,4.8
2023-02-14T02:29:23.062Z,4.8
2023-02-14T02:30:41.368Z,4.8
2023-02-14T02:31:59.428Z,4.6
2023-02-14T02:33:16.410Z,4.7
2023-02-14T02:34:28.465Z,4.7
2023-02-14T02:35:45.746Z,4.7
2023-02-14T02:37:00.609Z,4.8
2023-02-14T02:38:15.738Z,4.8
2023-02-14T02:39:32.924Z,4.8
2023-02-14T02:40:44.823Z,4.8
2023-02-14T02:42:00.719Z,4.7
2023-02-14T02:43:17.910Z,4.7
2023-02-14T02:44:35.056Z,4.7
2023-02-14T02:45:48.047Z,4.7
2023-02-14T02:47:05.280Z,4.8
2023-02-14T02:48:15.175Z,4.8
2023-02-14T02:49:21.950Z,4.8
2023-02-14T02:50:44.305Z,4.8
2023-02-14T02:51:57.249Z,4.7
2023-02-14T02:53:11.853Z,4.7
2023-02-14T02:54:23.865Z,4.7
2023-02-14T02:55:37.517Z,4.6
2023-02-14T02:56:58.002Z,4.6
2023-02-14T02:58:05.681Z,4.6
2023-02-14T02:59:14.397Z,4.6
2023-02-14T03:00:32.110Z,4.6
2023-02-14T03:01:40.346Z,4.6
2023-02-14T03:02:52.281Z,4.6
2023-02-14T03:04:04.386Z,4.6
2023-02-14T03:05:16.335Z,4.6
2023-02-14T03:06:25.558Z,4.7
2023-02-14T03:07:32.486Z,4.7
2023-02-14T03:08:41.934Z,4.7
2023-02-14T03:09:48.910Z,4.7
2023-02-14T03:11:01.278Z,4.5
2023-02-14T03:12:07.837Z,4.7
2023-02-14T03:13:25.029Z,4.6
2023-02-14T03:14:37.062Z,4.6
2023-02-14T03:15:54.443Z,4.5
2023-02-14T03:17:07.176Z,4.6
2023-02-14T03:18:19.325Z,4.5
2023-02-14T03:19:34.226Z,4.6
2023-02-14T03:20:43.846Z,4.6
2023-02-14T03:21:55.918Z,4.6
2023-02-14T03:23:10.891Z,4.7
2023-02-14T03:24:28.117Z,4.6
2023-02-14T03:25:45.341Z,4.6
2023-02-14T03:27:00.041Z,4.6
2023-02-14T03:28:10.694Z,4.6
2023-02-14T03:29:22.651Z,4.6
2023-02-14T03:30:34.611Z,4.5
2023-02-14T03:31:41.541Z,4.5
2023-02-14T03:32:53.614Z,4.5
2023-02-14T03:34:03.918Z,4.6
2023-02-14T03:35:15.845Z,4.6
2023-02-14T03:36:26.985Z,4.6
2023-02-14T03:37:36.169Z,4.6
2023-02-14T03:38:48.746Z,4.6
2023-02-14T03:39:59.837Z,4.6
2023-02-14T03:41:11.881Z,4.6
2023-02-14T03:42:21.486Z,4.6
2023-02-14T03:43:32.027Z,4.5
2023-02-14T03:45:45.790Z,4.4
2023-02-14T03:46:54.478Z,4.5
2023-02-14T03:48:01.503Z,4.6
2023-02-14T03:49:08.430Z,4.5
2023-02-14T03:50:16.456Z,4.5
2023-02-14T03:51:23.302Z,4.6
2023-02-14T03:52:31.114Z,4.6
2023-02-14T03:53:40.658Z,4.6
2023-02-14T03:54:47.524Z,4.5
2023-02-14T03:55:54.349Z,4.5
2023-02-14T03:57:01.286Z,4.4
2023-02-14T03:58:10.090Z,4.5
2023-02-14T03:59:24.823Z,4.4
2023-02-14T04:00:31.897Z,4.4
2023-02-14T04:01:38.801Z,4.5
2023-02-14T04:02:48.659Z,4.3
2023-02-14T04:03:58.335Z,4.4
2023-02-14T04:05:05.116Z,4.4
2023-02-14T04:06:12.040Z,4.5
2023-02-14T04:07:21.545Z,4.5
2023-02-14T04:08:29.258Z,4.6
2023-02-14T04:09:37.044Z,4.6
2023-02-14T04:10:45.062Z,4.6
2023-02-14T04:11:51.976Z,4.6
2023-02-14T04:13:00.887Z,4.6
2023-02-14T04:14:07.884Z,4.6
2023-02-14T04:15:16.554Z,4.6
2023-02-14T04:16:23.725Z,4.5
2023-02-14T04:17:30.581Z,4.6
2023-02-14T04:18:43.539Z,4.6
2023-02-14T04:19:55.437Z,4.6
2023-02-14T04:21:02.493Z,4.6
2023-02-14T04:22:09.261Z,4.6
2023-02-14T04:23:16.120Z,4.6
2023-02-14T04:24:23.624Z,4.6
2023-02-14T04:25:30.512Z,4.5
2023-02-14T04:26:37.388Z,4.6
2023-02-14T04:27:44.269Z,4.6
2023-02-14T04:28:52.060Z,4.6
2023-02-14T04:30:01.631Z,4.6
2023-02-14T04:31:08.851Z,4.6
2023-02-14T04:32:15.797Z,4.6
2023-02-14T04:33:22.547Z,4.6
2023-02-14T04:34:29.444Z,4.6
2023-02-14T04:35:36.361Z,4.6
2023-02-14T04:36:46.614Z,4.6
2023-02-14T04:37:53.513Z,4.6
2023-02-14T04:39:01.828Z,4.6
2023-02-14T04:40:09.032Z,4.5
2023-02-14T04:41:16.049Z,4.4
2023-02-14T04:42:26.428Z,4.4
2023-02-14T04:43:33.422Z,4.5
2023-02-14T04:44:41.683Z,4.5
2023-02-14T04:45:48.956Z,4.5
2023-02-14T04:46:55.853Z,4.5
2023-02-14T04:48:04.415Z,4.5
2023-02-14T04:49:11.403Z,4.4
2023-02-14T04:50:20.591Z,4.4
2023-02-14T04:51:27.672Z,4.5
2023-02-14T04:52:36.707Z,4.5
2023-02-14T04:53:44.487Z,4.5
2023-02-14T04:54:52.800Z,4.4
2023-02-14T04:56:00.803Z,4.4
2023-02-14T04:57:07.799Z,4.4
2023-02-14T04:58:15.546Z,4.4
2023-02-14T04:59:24.724Z,4.4
2023-02-14T05:00:30.183Z,4.3
2023-02-14T05:01:39.997Z,4.3
2023-02-14T05:02:50.913Z,4.3
2023-02-14T05:03:57.972Z,4.3
2023-02-14T05:05:04.910Z,4.3
2023-02-14T05:06:13.636Z,4.4
2023-02-14T05:07:20.561Z,4.4
2023-02-14T05:08:27.506Z,4.5
2023-02-14T05:09:35.681Z,4.5
2023-02-14T05:10:43.424Z,4.5
2023-02-14T05:11:50.349Z,4.5
2023-02-14T05:12:58.607Z,4.5
2023-02-14T05:14:08.254Z,4.5
2023-02-14T05:15:15.144Z,4.6
2023-02-14T05:16:22.919Z,4.6
2023-02-14T05:17:30.615Z,4.6
2023-02-14T05:18:40.944Z,4.5
2023-02-14T05:19:48.719Z,4.5
2023-02-14T05:20:56.777Z,4.3
2023-02-14T05:22:06.467Z,4.3
2023-02-14T05:23:14.210Z,4.3
2023-02-14T05:24:21.936Z,4.3
2023-02-14T05:25:28.840Z,4.3
2023-02-14T05:26:35.847Z,4.4
2023-02-14T05:27:42.752Z,4.4
2023-02-14T05:28:50.559Z,4.3
2023-02-14T05:29:58.570Z,4.3
2023-02-14T05:31:05.476Z,4.3
2023-02-14T05:32:12.415Z,4.4
2023-02-14T05:33:21.807Z,4.5
2023-02-14T05:34:29.851Z,4.5
2023-02-14T05:35:36.708Z,4.5
2023-02-14T05:36:43.802Z,4.5
2023-02-14T05:37:50.886Z,4.5
2023-02-14T05:38:57.714Z,4.5
2023-02-14T05:40:05.974Z,4.5
2023-02-14T05:41:13.118Z,4.5
2023-02-14T05:42:22.119Z,4.4
2023-02-14T05:43:29.876Z,4.5
2023-02-14T05:44:36.772Z,4.5
2023-02-14T05:45:43.729Z,4.5
2023-02-14T05:46:52.068Z,4.5
2023-02-14T05:48:00.037Z,4.5
2023-02-14T05:49:06.974Z,4.5
2023-02-14T05:50:14.728Z,4.5
2023-02-14T05:51:21.623Z,4.5
2023-02-14T05:52:28.657Z,4.5
2023-02-14T05:53:36.685Z,4.5
2023-02-14T05:54:43.557Z,4.5
2023-02-14T05:55:50.350Z,4.5
2023-02-14T05:56:58.196Z,4.5
2023-02-14T05:58:05.839Z,4.5
2023-02-14T05:59:12.832Z,4.5
2023-02-14T06:00:19.617Z,4.5
2023-02-14T06:01:27.465Z,4.5
2023-02-14T06:02:35.101Z,4.5
2023-02-14T06:03:42.749Z,4.5
2023-02-14T06:04:49.690Z,4.5
2023-02-14T06:05:56.532Z,4.5
2023-02-14T06:07:07.577Z,4.5
2023-02-14T06:08:14.513Z,4.5
2023-02-14T06:09:21.254Z,4.4
2023-02-14T06:10:28.193Z,4.5
2023-02-14T06:11:35.112Z,4.5
2023-02-14T06:12:44.898Z,4.5
2023-02-14T06:13:51.855Z,4.4
2023-02-14T06:14:58.739Z,4.4
2023-02-14T06:16:06.898Z,4.4
2023-02-14T06:17:14.919Z,4.4
2023-02-14T06:18:21.842Z,4.4
2023-02-14T06:19:28.653Z,4.4
2023-02-14T06:20:36.407Z,4.4
2023-02-14T06:21:44.050Z,4.4
2023-02-14T06:22:51.818Z,4.4
2023-02-14T06:23:58.725Z,4.4
2023-02-14T06:25:06.358Z,4.4
2023-02-14T06:26:13.163Z,4.4
2023-02-14T06:27:20.056Z,4.4
2023-02-14T06:28:27.999Z,4.4
2023-02-14T06:29:35.834Z,4.4
2023-02-14T06:30:42.913Z,4.4
2023-02-14T06:31:49.652Z,4.4
2023-02-14T06:32:58.053Z,4.3
2023-02-14T06:34:05.704Z,4.4
2023-02-14T06:35:13.915Z,4.4
2023-02-14T06:36:20.857Z,4.4
2023-02-14T06:37:29.793Z,4.4
2023-02-14T06:38:36.705Z,4.4
2023-02-14T06:39:43.575Z,4.4
2023-02-14T06:40:50.570Z,4.4
2023-02-14T06:41:57.542Z,4.4
2023-02-14T06:43:04.329Z,4.4
2023-02-14T06:44:12.989Z,4.4
2023-02-14T06:45:20.014Z,4.4
2023-02-14T06:46:28.827Z,4.4
2023-02-14T06:47:38.486Z,4.4
2023-02-14T06:48:45.278Z,4.4
2023-02-14T06:49:52.299Z,4.4
2023-02-14T06:50:59.548Z,4.3
2023-02-14T06:52:06.131Z,4.3
2023-02-14T06:53:13.090Z,4.3
2023-02-14T06:54:20.801Z,4.4
2023-02-14T06:55:27.571Z,4.3
2023-02-14T06:56:34.665Z,4.4
2023-02-14T06:57:41.804Z,4.4
2023-02-14T06:58:48.654Z,4.4
2023-02-14T06:59:56.439Z,4.4
2023-02-14T07:01:04.397Z,4.4
2023-02-14T07:02:12.124Z,4.3
2023-02-14T07:03:18.970Z,4.4
2023-02-14T07:04:25.913Z,4.4
2023-02-14T07:05:34.473Z,4.4
2023-02-14T07:06:42.228Z,4.4
2023-02-14T07:07:49.933Z,4.4
2023-02-14T07:08:56.881Z,4.3
2023-02-14T07:10:06.220Z,4.2
2023-02-14T07:11:13.197Z,4.2
2023-02-14T07:12:19.973Z,4.2
2023-02-14T07:13:28.281Z,4.3
2023-02-14T07:14:35.050Z,4.4
2023-02-14T07:15:45.001Z,4.4
2023-02-14T07:16:53.660Z,4.3
2023-02-14T07:18:01.892Z,4.3
2023-02-14T07:19:08.882Z,4.3
2023-02-14T07:20:15.669Z,4.3
2023-02-14T07:21:22.501Z,4.2
2023-02-14T07:22:30.547Z,4.3
2023-02-14T07:23:37.235Z,4.3
2023-02-14T07:24:45.741Z,4.3
2023-02-14T07:25:52.597Z,4.2
2023-02-14T07:27:00.414Z,4.3
2023-02-14T07:28:11.238Z,4.4
2023-02-14T07:29:18.718Z,4.3
2023-02-14T07:30:25.560Z,4.4
2023-02-14T07:31:32.478Z,4.4
2023-02-14T07:32:39.293Z,4.4
2023-02-14T07:33:48.389Z,4.4
2023-02-14T07:34:55.285Z,4.1
2023-02-14T07:36:02.050Z,4.3
2023-02-14T07:37:09.068Z,4.3
2023-02-14T07:38:15.903Z,4.4
2023-02-14T07:39:23.016Z,4.4
2023-02-14T07:40:30.314Z,4.3
2023-02-14T07:41:37.128Z,4.3
2023-02-14T07:42:44.142Z,4.3
2023-02-14T07:43:56.224Z,4.2
2023-02-14T07:45:09.600Z,4.2
2023-02-14T07:46:10.086Z,4.2
2023-02-14T07:47:16.914Z,4.3
2023-02-14T07:48:23.881Z,4.2
2023-02-14T07:49:30.782Z,4.1
2023-02-14T07:50:37.758Z,4
2023-02-14T07:51:44.600Z,4.1
2023-02-14T07:52:51.469Z,4.2
2023-02-14T07:53:58.429Z,4.2
2023-02-14T07:55:05.284Z,4.2
2023-02-14T07:56:12.330Z,4.2
2023-02-14T07:57:20.191Z,4.2
2023-02-14T07:58:28.903Z,4.3
2023-02-14T07:59:35.805Z,4.3
2023-02-14T08:00:43.573Z,4.3
2023-02-14T08:01:50.624Z,4.1
2023-02-14T08:02:57.487Z,4
2023-02-14T08:04:04.369Z,4
2023-02-14T08:05:11.248Z,4
2023-02-14T08:06:18.012Z,4.1
2023-02-14T08:07:25.090Z,4.1
2023-02-14T08:08:31.964Z,4.1
2023-02-14T08:09:38.818Z,4.1
2023-02-14T08:10:45.689Z,4.2
2023-02-14T08:11:52.584Z,4.2
2023-02-14T08:13:04.881Z,4.2
2023-02-14T08:14:12.041Z,4.2
2023-02-14T08:15:18.953Z,4.1
2023-02-14T08:16:33.854Z,4.2
2023-02-14T08:17:40.860Z,4
2023-02-14T08:18:47.852Z,4.1
2023-02-14T08:19:54.705Z,4.1
2023-02-14T08:21:01.842Z,4.1
2023-02-14T08:22:08.535Z,4.1
2023-02-14T08:23:15.362Z,4.2
2023-02-14T08:24:22.274Z,4.2
2023-02-14T08:25:29.151Z,4
2023-02-14T08:26:36.090Z,4.1
2023-02-14T08:27:42.966Z,4
2023-02-14T08:28:49.881Z,4.1
2023-02-14T08:29:56.727Z,4.3
2023-02-14T08:31:04.074Z,4.2
2023-02-14T08:32:10.672Z,4.3
2023-02-14T08:33:17.409Z,4.3
2023-02-14T08:34:24.262Z,4.4
2023-02-14T08:35:31.163Z,4.4
2023-02-14T08:36:38.151Z,4.4
2023-02-14T08:37:45.041Z,4.3
2023-02-14T08:38:51.939Z,4.4
2023-02-14T08:39:58.888Z,4.2
2023-02-14T08:41:08.434Z,4.1
2023-02-14T08:42:13.586Z,4.1
2023-02-14T08:43:21.163Z,4.2
2023-02-14T08:44:28.008Z,4
2023-02-14T08:45:34.887Z,4.2
2023-02-14T08:46:41.827Z,4.4
2023-02-14T08:47:48.525Z,4.4
2023-02-14T08:48:55.521Z,4.3
2023-02-14T08:50:02.478Z,4
2023-02-14T08:51:12.761Z,4.2
2023-02-14T08:52:22.142Z,4.3
2023-02-14T08:53:29.861Z,4.3
2023-02-14T08:54:36.676Z,4.3
2023-02-14T08:55:43.458Z,4.3
2023-02-14T08:56:50.446Z,4.3
2023-02-14T08:57:58.431Z,4
2023-02-14T08:59:05.219Z,4.1
2023-02-14T09:00:12.071Z,4.2
2023-02-14T09:01:19.071Z,4.1
2023-02-14T09:02:25.757Z,4.4
2023-02-14T09:03:32.805Z,4.2
2023-02-14T09:04:39.654Z,4.5
2023-02-14T09:05:46.229Z,4.3
2023-02-14T09:06:53.176Z,4.3
2023-02-14T09:08:00.101Z,4.2
2023-02-14T09:09:07.009Z,4.3
2023-02-14T09:10:14.781Z,4.3
2023-02-14T09:11:24.696Z,4.4
2023-02-14T09:12:31.698Z,4.6
2023-02-14T09:13:38.582Z,4.7
2023-02-14T09:14:45.463Z,4.6
2023-02-14T09:15:52.328Z,4.4
2023-02-14T09:16:59.214Z,4.5
2023-02-14T09:18:06.140Z,4.4
2023-02-14T09:19:15.217Z,4.5
2023-02-14T09:20:22.171Z,4.3
2023-02-14T09:21:28.998Z,4.4
2023-02-14T09:22:35.823Z,4.3
2023-02-14T09:23:43.171Z,4.4
2023-02-14T09:24:50.525Z,4.5
2023-02-14T09:25:57.460Z,4.6
2023-02-14T09:27:07.505Z,4.5
2023-02-14T09:28:15.459Z,4.6
2023-02-14T09:29:22.332Z,4.5
2023-02-14T09:30:29.277Z,4.6
2023-02-14T09:31:36.092Z,4.5
2023-02-14T09:32:43.034Z,4.5
2023-02-14T09:33:50.970Z,4.5
2023-02-14T09:35:03.063Z,4.5
2023-02-14T09:36:10.169Z,4.5
2023-02-14T09:37:17.029Z,4.7
2023-02-14T09:38:24.057Z,4.8
2023-02-14T09:39:30.942Z,4.8
2023-02-14T09:40:37.853Z,4.9
2023-02-14T09:41:45.195Z,4.9
2023-02-14T09:42:52.165Z,4.7
2023-02-14T09:44:09.329Z,4.7
2023-02-14T09:45:24.633Z,4.8
2023-02-14T09:46:31.486Z,4.8
2023-02-14T09:47:38.461Z,4.5
2023-02-14T09:48:48.126Z,4.7
2023-02-14T09:49:54.981Z,4.8
2023-02-14T09:51:02.390Z,4.8
2023-02-14T09:52:09.091Z,4.9
2023-02-14T09:53:16.047Z,4.9
2023-02-14T09:54:28.492Z,5
2023-02-14T09:55:35.318Z,4.9
2023-02-14T09:56:50.512Z,4.9
2023-02-14T09:57:52.382Z,4.9
2023-02-14T09:59:02.054Z,5.1
2023-02-14T10:00:19.197Z,5
2023-02-14T10:01:26.310Z,4.8
2023-02-14T10:02:33.081Z,5
2023-02-14T10:03:47.978Z,5
2023-02-14T10:04:55.045Z,5.1
2023-02-14T10:06:12.268Z,4.9
2023-02-14T10:07:24.299Z,5
2023-02-14T10:08:36.407Z,5.1
2023-02-14T10:09:49.538Z,5
2023-02-14T10:11:01.791Z,5
2023-02-14T10:12:13.540Z,5
2023-02-14T10:13:28.247Z,5
2023-02-14T10:14:43.689Z,5.2
2023-02-14T10:15:50.676Z,5.1
2023-02-14T10:17:00.578Z,5.1
2023-02-14T10:18:12.562Z,5.1
2023-02-14T10:19:24.752Z,5.3
2023-02-14T10:20:31.576Z,5.4
2023-02-14T10:21:43.530Z,5.4
2023-02-14T10:22:55.532Z,5.3
2023-02-14T10:24:06.238Z,5.1
2023-02-14T10:25:20.803Z,5.1
2023-02-14T10:26:32.785Z,5.2
2023-02-14T10:27:39.815Z,5.2
2023-02-14T10:28:46.653Z,5.2
2023-02-14T10:29:53.667Z,5.4
2023-02-14T10:31:01.296Z,5.5
2023-02-14T10:32:09.005Z,5.4
2023-02-14T10:33:16.202Z,5.2
2023-02-14T10:34:23.147Z,5.2
2023-02-14T10:35:39.412Z,5.2
2023-02-14T10:36:51.475Z,5.3
2023-02-14T10:38:08.744Z,5.5
2023-02-14T10:39:23.514Z,5.3
2023-02-14T10:40:35.537Z,5.3
2023-02-14T10:41:51.370Z,5.2
2023-02-14T10:42:59.178Z,5.3
2023-02-14T10:44:13.994Z,5.2
2023-02-14T10:45:31.258Z,5.3
2023-02-14T10:46:38.135Z,5.4
2023-02-14T10:47:56.190Z,5.5
2023-02-14T10:49:13.378Z,5.2
2023-02-14T10:50:25.430Z,5.2
2023-02-14T10:51:35.370Z,5.3
2023-02-14T10:52:42.302Z,5.6
2023-02-14T10:53:54.279Z,5.5
2023-02-14T10:55:06.279Z,5.4
2023-02-14T10:56:22.593Z,5.6
2023-02-14T10:57:31.697Z,5.8
2023-02-14T10:58:41.567Z,5.8
2023-02-14T10:59:48.433Z,5.3
2023-02-14T11:01:05.720Z,5.5
2023-02-14T11:02:15.402Z,5.5
2023-02-14T11:03:22.512Z,5.6
2023-02-14T11:04:30.424Z,5.5
2023-02-14T11:05:37.301Z,5.6
2023-02-14T11:06:46.938Z,5.6
2023-02-14T11:07:53.813Z,5.7
2023-02-14T11:09:01.656Z,5.8
2023-02-14T11:10:08.410Z,5.7
2023-02-14T11:11:15.619Z,5.6
2023-02-14T11:12:27.691Z,5.3
2023-02-14T11:13:37.359Z,5.5
2023-02-14T11:14:44.383Z,5.4
2023-02-14T11:15:51.268Z,5.6
2023-02-14T11:16:58.273Z,5.8
2023-02-14T11:18:15.396Z,5.9
2023-02-14T11:19:27.457Z,6
2023-02-14T11:20:34.265Z,5.9
2023-02-14T11:21:42.195Z,5.9
2023-02-14T11:22:49.159Z,5.9
2023-02-14T11:23:56.760Z,6.1
2023-02-14T11:25:04.721Z,6.1
2023-02-14T11:26:10.876Z,6.1
2023-02-14T11:27:22.884Z,6.1
2023-02-14T11:28:29.802Z,6.2
2023-02-14T11:29:36.678Z,6.2
2023-02-14T11:30:46.448Z,6.3
2023-02-14T11:31:53.432Z,6.4
2023-02-14T11:33:00.249Z,6.2
2023-02-14T11:34:07.194Z,6.3
2023-02-14T11:35:22.411Z,6.3
2023-02-14T11:36:30.465Z,6.3
2023-02-14T11:37:38.456Z,6
2023-02-14T11:38:53.269Z,6.1
2023-02-14T11:40:05.375Z,5.9
2023-02-14T11:41:24.435Z,6
2023-02-14T11:42:29.528Z,6.1
2023-02-14T11:43:41.771Z,6.2
2023-02-14T11:44:48.721Z,6.3
2023-02-14T11:45:59.065Z,6.3
2023-02-14T11:47:14.436Z,6.1
2023-02-14T11:48:38.080Z,6.3
2023-02-14T11:49:33.409Z,6.4
2023-02-14T11:50:40.404Z,6.2
2023-02-14T11:51:47.264Z,6.1
2023-02-14T11:52:55.001Z,6
2023-02-14T11:54:01.976Z,6
2023-02-14T11:55:08.880Z,6
2023-02-14T11:56:15.782Z,5.9
2023-02-14T11:57:22.756Z,6
2023-02-14T11:58:32.584Z,6
2023-02-14T11:59:42.366Z,6
2023-02-14T12:00:54.454Z,5.8
2023-02-14T12:02:01.443Z,5.9
2023-02-14T12:03:18.651Z,6.1
2023-02-14T12:04:25.727Z,6
2023-02-14T12:05:35.669Z,6.1
2023-02-14T12:06:47.694Z,5.9
2023-02-14T12:07:54.624Z,6
2023-02-14T12:09:04.514Z,5.8
2023-02-14T12:10:21.991Z,6
2023-02-14T12:11:32.121Z,5.9
2023-02-14T12:12:39.083Z,5.9
2023-02-14T12:13:54.150Z,6.2
2023-02-14T12:15:01.912Z,6.3
2023-02-14T12:16:19.054Z,6.2
2023-02-14T12:17:32.062Z,6.3
2023-02-14T12:18:38.994Z,6.3
2023-02-14T12:19:53.936Z,6.4
2023-02-14T12:21:11.160Z,6.4
2023-02-14T12:22:27.502Z,6.3
2023-02-14T12:23:32.595Z,6.3
2023-02-14T12:24:43.590Z,6.2
2023-02-14T12:25:55.578Z,6.4
2023-02-14T12:27:07.572Z,6.2
2023-02-14T12:28:19.561Z,6.1
2023-02-14T12:29:26.519Z,6.2
2023-02-14T12:30:36.139Z,6.2
2023-02-14T12:31:43.187Z,6.2
2023-02-14T12:32:50.773Z,6.3
2023-02-14T12:33:59.149Z,6.1
2023-02-14T12:35:08.094Z,6.1
2023-02-14T12:36:18.306Z,6.1
2023-02-14T12:37:35.523Z,5.9
2023-02-14T12:38:52.883Z,6.1
2023-02-14T12:40:04.885Z,6.2
2023-02-14T12:41:14.634Z,6.3
2023-02-14T12:42:26.552Z,6.3
2023-02-14T12:43:38.492Z,6.2
2023-02-14T12:44:52.174Z,6
2023-02-14T12:46:07.240Z,6.1
2023-02-14T12:47:19.221Z,6
2023-02-14T12:48:31.300Z,6
2023-02-14T12:49:44.299Z,6.2
2023-02-14T12:51:01.792Z,6.1
2023-02-14T12:52:14.131Z,6.3
2023-02-14T12:53:31.298Z,6.2
2023-02-14T12:54:43.374Z,6.3
2023-02-14T12:56:00.685Z,6.4
2023-02-14T12:57:13.630Z,6.4
2023-02-14T12:58:28.490Z,6.2
2023-02-14T12:59:40.544Z,6.1
2023-02-14T13:00:57.997Z,6.2
2023-02-14T13:02:15.055Z,6.2
2023-02-14T13:03:27.125Z,6.3
2023-02-14T13:04:44.336Z,6.1
2023-02-14T13:05:56.393Z,6.2
2023-02-14T13:07:11.506Z,6.2
2023-02-14T13:08:19.086Z,6.3
2023-02-14T13:09:34.056Z,6.4
2023-02-14T13:10:43.629Z,6.5
2023-02-14T13:12:00.943Z,6.4
2023-02-14T13:13:13.954Z,6.4
2023-02-14T13:14:26.042Z,6.2
2023-02-14T13:15:43.442Z,6.2
2023-02-14T13:16:53.126Z,6.1
2023-02-14T13:18:00.264Z,6.1
2023-02-14T13:19:17.440Z,6.1
2023-02-14T13:20:29.728Z,6.3
2023-02-14T13:21:46.675Z,6.3
2023-02-14T13:22:53.602Z,6.4
2023-02-14T13:24:00.514Z,6.4
2023-02-14T13:25:12.560Z,6.5
2023-02-14T13:26:19.561Z,6.1
2023-02-14T13:27:29.104Z,6.2
2023-02-14T13:28:36.328Z,6.3
2023-02-14T13:29:43.205Z,6.3
2023-02-14T13:30:50.957Z,6.2
2023-02-14T13:31:58.103Z,6.3
2023-02-14T13:33:06.031Z,6.2
2023-02-14T13:34:12.983Z,6.2
2023-02-14T13:35:25.109Z,6.2
2023-02-14T13:36:32.164Z,6.2
2023-02-14T13:37:39.034Z,6.1
2023-02-14T13:38:46.114Z,5.9
2023-02-14T13:39:53.074Z,5.9
2023-02-14T13:41:05.393Z,5.9
2023-02-14T13:42:12.160Z,6.1
2023-02-14T13:43:24.071Z,6
2023-02-14T13:44:41.537Z,6.1
2023-02-14T13:45:51.417Z,6.2
2023-02-14T13:46:58.490Z,6.2
2023-02-14T13:48:05.329Z,6.2
2023-02-14T13:49:20.297Z,6.2
2023-02-14T13:50:27.360Z,6.2
2023-02-14T13:51:34.168Z,5.9
2023-02-14T13:52:46.092Z,5.9
2023-02-14T13:53:52.985Z,5.9
2023-02-14T13:55:01.446Z,5.9
2023-02-14T13:56:11.129Z,5.9
2023-02-14T13:57:21.845Z,5.9
2023-02-14T13:58:36.797Z,6.1
2023-02-14T13:59:54.093Z,6.2
2023-02-14T14:01:11.442Z,6
2023-02-14T14:02:30.149Z,6.1
2023-02-14T14:03:36.173Z,6.2
2023-02-14T14:04:46.420Z,6.3
2023-02-14T14:05:53.311Z,6.3
2023-02-14T14:07:00.217Z,6.2
2023-02-14T14:08:07.128Z,6.2
2023-02-14T14:09:24.469Z,6.2
2023-02-14T14:10:42.674Z,6.2
2023-02-14T14:11:54.696Z,6.2
2023-02-14T14:13:01.605Z,6.3
2023-02-14T14:14:08.556Z,5.8
2023-02-14T14:15:23.524Z,6.2
2023-02-14T14:16:30.516Z,6.1
2023-02-14T14:17:37.413Z,6
2023-02-14T14:18:47.145Z,6.1
2023-02-14T14:19:58.076Z,6.2
2023-02-14T14:21:05.261Z,6.2
2023-02-14T14:22:17.659Z,6.3
2023-02-14T14:23:24.940Z,6.3
2023-02-14T14:24:35.550Z,6.4
2023-02-14T14:25:42.653Z,6.3
2023-02-14T14:26:49.624Z,6.2
2023-02-14T14:28:04.613Z,6.3
2023-02-14T14:29:20.299Z,6.1
2023-02-14T14:30:27.190Z,6
2023-02-14T14:31:34.067Z,5.9
2023-02-14T14:32:41.008Z,5.9
2023-02-14T14:33:47.971Z,5.9
2023-02-14T14:35:01.103Z,5.9
2023-02-14T14:36:15.933Z,5.8
2023-02-14T14:37:25.708Z,6
2023-02-14T14:38:35.949Z,6.1
2023-02-14T14:39:51.750Z,6.1
2023-02-14T14:41:01.690Z,6
2023-02-14T14:42:08.699Z,6.1
2023-02-14T14:43:18.697Z,6.2
2023-02-14T14:44:30.897Z,6.2
2023-02-14T14:45:37.906Z,6.1
2023-02-14T14:46:45.632Z,6
2023-02-14T14:47:54.157Z,6.1
2023-02-14T14:48:59.679Z,6.1
2023-02-14T14:50:06.621Z,6.1
2023-02-14T14:51:16.563Z,6
2023-02-14T14:52:31.643Z,6.1
2023-02-14T14:53:41.937Z,6.1
2023-02-14T14:54:48.806Z,6.1
2023-02-14T14:55:55.757Z,6.1
2023-02-14T14:57:02.752Z,6.1
2023-02-14T14:58:09.698Z,6
2023-02-14T14:59:26.885Z,5.9
2023-02-14T15:00:38.963Z,6
2023-02-14T15:01:45.873Z,5.8
2023-02-14T15:02:52.777Z,5.9
2023-02-14T15:04:08.355Z,5.8
2023-02-14T15:05:17.382Z,5.9
2023-02-14T15:06:30.417Z,5.9
2023-02-14T15:07:37.681Z,5.9
2023-02-14T15:08:44.400Z,6
2023-02-14T15:09:51.317Z,6.1
2023-02-14T15:10:59.641Z,6.1
2023-02-14T15:12:11.250Z,6.1
2023-02-14T15:13:23.222Z,6.2
2023-02-14T15:14:40.478Z,6.2
2023-02-14T15:15:47.383Z,6.1
2023-02-14T15:16:54.312Z,6.1
2023-02-14T15:18:04.116Z,6
2023-02-14T15:19:11.111Z,5.9
2023-02-14T15:20:23.182Z,6
2023-02-14T15:21:30.055Z,6
2023-02-14T15:22:37.368Z,6.1
2023-02-14T15:23:47.441Z,6.1
2023-02-14T15:24:54.302Z,6
2023-02-14T15:26:01.339Z,5.9
2023-02-14T15:27:08.389Z,5.9
2023-02-14T15:28:15.264Z,6
2023-02-14T15:29:30.108Z,5.9
2023-02-14T15:30:37.395Z,6
2023-02-14T15:31:44.857Z,6
2023-02-14T15:32:51.758Z,5.9
2023-02-14T15:33:58.776Z,5.9
2023-02-14T15:35:06.601Z,5.8
2023-02-14T15:36:13.511Z,5.9
2023-02-14T15:37:23.184Z,5.9
2023-02-14T15:38:30.121Z,5.9
2023-02-14T15:39:38.141Z,5.8
2023-02-14T15:40:45.024Z,5.9
2023-02-14T15:41:51.922Z,5.9
2023-02-14T15:43:01.719Z,5.9
2023-02-14T15:44:16.798Z,5.7
2023-02-14T15:45:23.720Z,5.7
2023-02-14T15:46:30.710Z,5.6
2023-02-14T15:47:37.556Z,5.8
2023-02-14T15:48:44.878Z,5.7
2023-02-14T15:49:51.903Z,5.8
2023-02-14T15:50:59.052Z,5.9
2023-02-14T15:52:05.629Z,5.8
2023-02-14T15:53:15.386Z,5.8
2023-02-14T15:54:22.197Z,5.7
2023-02-14T15:55:29.137Z,5.7
2023-02-14T15:56:36.089Z,5.6
2023-02-14T15:57:50.971Z,5.6
2023-02-14T15:59:03.920Z,5.7